Station: Cape Wessel  

  Atmospheric Gas Attenuation - ITU Rec 676-11   ----------------- dB/100km -----------------
Date Time Temp RH % AH g/m3 Dew Point Wind Direction Speed kph Gust kph Barometer mB Rainfall Since 9am 24GHz 47GHz 76GHz 122GHz 134GHz 241GHz
11/05 04:20 27.3 88 23.03 25.1 35 41 1010.9 0 49.3 46.6 94.1 249.3 280.8 975.8
11/05 04:10 27.2 87 22.64 24.8 35 39 1010.8 0 48.5 45.9 92.3 244.4 274.8 954.9
11/05 04:00 27.3 89 23.29 25.3 30 39 1010.7 0 49.8 47.2 95.4 252.7 285.1 990.6
11/05 03:50 27.3 88 23.03 25.1 32 39 1010.7 0 49.3 46.6 94.1 249.2 280.8 975.7
11/05 03:40 27.4 88 23.16 25.2 32 35 1010.8 0 49.5 46.8 94.7 250.7 282.6 981.9
11/05 03:30 27.2 88 22.9 25 32 39 1010.9 0 49.0 46.4 93.6 247.9 279.1 969.7
11/05 03:20 27.3 87 22.77 24.9 35 39 1010.8 0 48.7 46.1 92.8 245.8 276.6 961.0
11/05 03:10 27.3 87 22.77 24.9 37 41 1010.8 0 48.7 46.1 92.8 245.8 276.6 961.0
11/05 03:00 27.2 87 22.64 24.8 33 41 1010.8 0 48.5 45.9 92.3 244.4 274.8 954.9
11/05 02:50 27.3 87 22.77 24.9 35 39 1010.8 0 48.7 46.1 92.8 245.8 276.6 961.0
11/05 02:40 27.3 87 22.77 24.9 32 35 1010.9 0 48.7 46.1 92.8 245.8 276.6 961.0
11/05 02:30 27.2 87 22.64 24.8 35 44 1011 0 48.5 45.9 92.3 244.4 274.8 955.0
11/05 02:20 27.2 87 22.64 24.8 35 41 1010.9 0 48.5 45.9 92.3 244.4 274.8 955.0
11/05 02:10 27.3 87 22.77 24.9 37 39 1011 0 48.7 46.1 92.8 245.8 276.6 961.1
11/05 02:00 27.3 86 22.5 24.7 37 46 1011.2 0 48.1 45.6 91.5 242.3 272.2 945.9
11/05 01:50 27.4 86 22.63 24.8 39 44 1011.2 0 48.4 45.8 92.0 243.7 274.0 952.0
11/05 01:40 27.4 86 22.63 24.8 33 41 1011.4 0 48.4 45.8 92.0 243.7 274.0 952.1
11/05 01:30 27.3 87 22.77 24.9 33 43 1011.4 0 48.7 46.1 92.9 245.9 276.7 961.4
11/05 01:20 27.3 86 22.5 24.7 32 39 1011.5 0 48.1 45.6 91.5 242.3 272.3 946.1
11/05 01:10 27.1 88 22.77 24.9 39 46 1011.7 0 48.7 46.3 93.1 246.6 277.5 964.1
11/05 01:00 26.9 89 22.78 24.9 33 43 1011.8 0 48.8 46.4 93.4 247.4 278.4 967.3
11/05 00:50 27.6 87 23.15 25.2 35 43 1011.9 0 49.5 46.8 94.4 250.1 281.8 979.4
11/05 00:40 27.5 85 22.49 24.7 30 33 1012.1 0 48.1 45.5 91.3 241.6 271.5 943.4
11/05 00:30 27.3 86 22.5 24.7 32 41 1012.1 0 48.1 45.6 91.6 242.4 272.4 946.5
11/05 00:20 27.3 87 22.77 24.9 28 33 1012.2 0 48.7 46.2 92.9 246.0 276.8 961.8
11/05 00:10 27.4 87 22.89 25 37 41 1012.3 0 49.0 46.4 93.4 247.3 278.4 967.4
11/05 00:00 27.5 85 22.49 24.7 33 41 1012.5 0 48.1 45.5 91.3 241.7 271.6 943.7
10/05 23:50 27.4 84 22.1 24.5 35 39 1012.6 0 47.3 44.8 89.5 236.9 265.6 923.1
10/05 23:40 27.5 83 21.96 24.3 33 39 1012.6 0 47.0 44.5 88.7 234.8 263.0 914.1
10/05 23:30 27.7 85 22.74 24.9 33 41 1012.7 0 48.6 45.9 92.3 244.4 274.9 955.3
10/05 23:20 27.6 85 22.61 24.8 32 41 1012.7 0 48.3 45.7 91.8 243.0 273.2 949.3
10/05 23:10 27.5 86 22.75 24.9 32 37 1012.7 0 48.6 46.0 92.6 245.2 275.8 958.4
10/05 23:00 27.5 85 22.49 24.7 33 41 1012.7 0 48.1 45.5 91.3 241.7 271.6 943.8
10/05 22:50 27.5 83 21.96 24.3 35 39 1012.7 0 47.0 44.5 88.7 234.8 263.1 914.1
10/05 22:40 27.6 83 22.08 24.4 37 39 1012.7 0 47.2 44.7 89.2 236.0 264.6 919.6
10/05 22:30 27.6 83 22.08 24.4 32 39 1012.7 0 47.2 44.7 89.2 236.0 264.6 919.6
10/05 22:20 27.4 83 21.84 24.3 35 39 1012.7 0 46.7 44.3 88.2 233.5 261.5 908.7
10/05 22:10 27.4 84 22.1 24.5 35 41 1012.7 0 47.3 44.8 89.5 236.9 265.7 923.2
10/05 22:00 27.4 85 22.37 24.7 35 43 1012.7 0 47.8 45.3 90.8 240.5 270.0 938.3
10/05 21:50 27.6 83 22.08 24.4 33 41 1012.8 0 47.2 44.7 89.2 236.1 264.6 919.6
10/05 21:40 27.6 83 22.08 24.4 33 41 1012.8 0 47.2 44.7 89.2 236.1 264.6 919.6
10/05 21:30 27.7 83 22.2 24.5 35 43 1012.7 0 47.4 44.8 89.6 237.3 266.2 925.0
10/05 21:20 27.5 84 22.23 24.5 35 39 1012.6 0 47.5 45.0 90.0 238.3 267.4 929.1
10/05 21:10 27.5 84 22.23 24.5 33 39 1012.6 0 47.5 45.0 90.0 238.3 267.4 929.1
10/05 21:00 27.5 84 22.23 24.6 35 44 1012.6 0 47.5 45.0 90.0 238.3 267.4 929.1
10/05 20:50 27.5 84 22.23 24.5 37 43 1012.5 0 47.5 45.0 90.0 238.3 267.4 929.1
10/05 20:40 27.6 84 22.35 24.6 33 37 1012.5 0 47.8 45.2 90.5 239.5 268.9 934.5
10/05 20:30 27.6 83 22.08 24.4 35 43 1012.4 0 47.2 44.6 89.1 236.0 264.6 919.4
10/05 20:20 27.6 84 22.35 24.6 32 35 1012.4 0 47.8 45.2 90.5 239.5 268.9 934.5
10/05 20:10 27.6 84 22.35 24.6 32 37 1012.2 0 47.8 45.2 90.4 239.5 268.9 934.4
10/05 20:00 27.5 85 22.49 24.7 32 39 1012 0 48.1 45.5 91.3 241.6 271.5 943.3
10/05 19:50 27.6 84 22.35 24.6 32 35 1012 0 47.8 45.2 90.4 239.5 268.8 934.2
10/05 19:40 27.5 83 21.96 24.3 35 39 1011.9 0 47.0 44.4 88.6 234.6 262.9 913.6
10/05 19:30 27.7 82 21.94 24.3 35 41 1011.6 0 46.9 44.3 88.3 233.7 261.8 909.9
10/05 19:20 27.6 84 22.35 24.6 35 39 1011.5 0 47.8 45.1 90.4 239.4 268.7 933.9
10/05 19:10 27.6 83 22.08 24.4 35 41 1011.4 0 47.2 44.6 89.1 235.8 264.4 918.8
10/05 19:00 27.7 83 22.2 24.5 35 44 1011.3 0 47.5 44.8 89.5 237.0 265.9 924.2
10/05 18:50 27.7 85 22.74 24.9 32 35 1011.1 0 48.6 45.8 92.2 244.1 274.6 954.3
10/05 18:40 27.7 83 22.2 24.5 35 43 1010.9 0 47.5 44.8 89.5 237.0 265.9 923.9
10/05 18:30 27.7 83 22.2 24.5 35 44 1010.6 0 47.5 44.7 89.5 236.9 265.8 923.8
10/05 18:20 27.7 82 21.94 24.3 35 41 1010.6 0 46.9 44.2 88.2 233.5 261.7 909.3
10/05 18:10 27.7 83 22.2 24.5 35 41 1010.4 0 47.5 44.7 89.5 236.9 265.8 923.6
10/05 18:00 27.7 83 22.2 24.5 37 46 1010.4 0 47.5 44.7 89.5 236.9 265.8 923.6
10/05 17:50 27.8 82 22.06 24.4 39 46 1010.4 0 47.2 44.4 88.7 234.8 263.2 914.6
10/05 17:40 27.9 82 22.18 24.5 37 43 1010.4 0 47.4 44.6 89.1 236.0 264.7 920.1
10/05 17:30 28 80 21.76 24.2 39 50 1010.2 0 46.5 43.7 86.9 230.2 257.7 895.6
10/05 17:20 28.2 81 22.27 24.6 35 44 1010 0 47.6 44.6 89.2 236.2 265.0 921.1
10/05 17:10 28 82 22.3 24.6 39 46 1009.9 0 47.6 44.7 89.6 237.2 266.2 925.2
10/05 17:00 28.3 79 21.84 24.3 43 52 1009.8 0 46.6 43.7 87.0 230.3 257.8 896.1
10/05 16:50 28.4 81 22.52 24.8 43 48 1009.7 0 48.1 45.0 90.1 238.7 268.3 932.3
10/05 16:40 28.5 81 22.64 24.9 37 44 1009.7 0 48.3 45.1 90.6 240.0 269.8 937.8
10/05 16:30 28.2 81 22.27 24.6 39 48 1009.7 0 47.6 44.6 89.2 236.1 265.0 921.0
10/05 16:20 28.4 80 22.24 24.6 41 46 1009.6 0 47.5 44.4 88.8 235.1 263.8 916.8
10/05 16:10 28.8 79 22.45 24.8 37 43 1009.5 0 47.9 44.6 89.3 236.5 265.7 923.4
10/05 16:00 29 78 22.41 24.8 37 48 1009.4 0 47.8 44.4 88.9 235.4 264.3 918.7
10/05 15:50 29.3 77 22.48 24.8 39 44 1009.5 0 47.9 44.4 88.9 235.3 264.4 918.9
10/05 15:40 29 79 22.69 25 35 44 1009.5 0 48.3 44.9 90.2 239.0 268.8 934.2
10/05 15:30 28.9 78 22.29 24.7 41 48 1009.4 0 47.5 44.2 88.4 234.1 262.8 913.3
10/05 15:20 28.9 80 22.86 25.1 41 48 1009.4 0 48.7 45.3 91.2 241.5 271.8 944.8
10/05 15:10 28.4 80 22.24 24.6 43 48 1009.4 0 47.5 44.4 88.8 235.0 263.7 916.7
10/05 15:00 28.6 79 22.2 24.6 39 48 1009.5 0 47.4 44.2 88.3 233.9 262.4 912.1
10/05 14:50 28.6 79 22.2 24.6 33 39 1009.6 0 47.4 44.2 88.3 233.9 262.4 912.1
10/05 14:40 28.8 81 23.02 25.2 30 39 1009.6 0 49.1 45.7 92.1 244.0 274.8 955.1
10/05 14:30 29.3 78 22.78 25.1 37 48 1009.7 0 48.5 45.0 90.3 239.2 269.1 935.5
10/05 14:20 29.5 75 22.14 24.6 43 48 1009.6 0 47.1 43.6 87.0 230.4 258.3 898.0
10/05 14:10 29.8 74 22.2 24.7 41 44 1009.7 0 47.2 43.6 86.9 230.3 258.3 897.8
10/05 14:00 29.4 80 23.49 25.6 37 48 1009.8 0 50.0 46.3 93.7 248.2 280.1 973.7
10/05 13:50 30.5 73 22.75 25.1 39 43 1009.8 0 48.3 44.3 88.8 235.1 264.4 919.1
10/05 13:40 30.6 74 23.18 25.4 35 41 1009.9 0 49.2 45.0 90.7 240.3 270.8 941.3
10/05 13:30 29.7 78 23.28 25.4 39 52 1010 0 49.5 45.7 92.3 244.5 275.7 958.3
10/05 13:20 29.5 76 22.43 24.8 39 44 1010.2 0 47.7 44.2 88.4 234.2 263.0 914.2
10/05 13:10 29.4 79 23.19 25.4 41 44 1010.3 0 49.3 45.7 92.3 244.3 275.4 957.3
10/05 13:00 29.7 76 22.68 25 41 54 1010.3 0 48.2 44.6 89.4 236.8 266.2 925.4
10/05 12:50 29.5 76 22.43 24.8 46 50 1010.5 0 47.7 44.2 88.5 234.2 263.0 914.3
10/05 12:40 29.5 79 23.32 25.5 37 46 1010.6 0 49.6 46.0 92.8 245.8 277.2 963.4
10/05 12:30 29.6 75 22.26 24.7 46 57 1010.8 0 47.4 43.8 87.5 231.8 260.1 904.1
10/05 12:20 29.3 78 22.78 25.1 46 52 1010.9 0 48.5 45.0 90.4 239.4 269.3 936.2
10/05 12:10 28.9 79 22.57 24.9 43 52 1011.2 0 48.1 44.8 89.9 238.0 267.5 929.8
10/05 12:00 29.8 76 22.8 25.1 43 52 1011.3 0 48.5 44.8 89.9 238.2 267.9 931.4
10/05 11:50 29.4 78 22.9 25.2 35 43 1011.3 0 48.7 45.2 90.9 240.8 271.0 941.9

Last Refresh: 11-May-2026 04:32:07

Bureau of Meteorology